sensor_id;sensor_type;location;lat;lon;timestamp;P1;durP1;ratioP1;P2;durP2;ratioP2
27303;SDS011;14791;52.392;13.092;2023-11-21T00:00:32;1.80;;;1.70;;
27303;SDS011;14791;52.392;13.092;2023-11-21T00:03:02;1.63;;;1.63;;
27303;SDS011;14791;52.392;13.092;2023-11-21T00:05:31;1.30;;;1.30;;
27303;SDS011;14791;52.392;13.092;2023-11-21T00:08:00;1.50;;;1.40;;
27303;SDS011;14791;52.392;13.092;2023-11-21T00:10:29;1.57;;;1.57;;
27303;SDS011;14791;52.392;13.092;2023-11-21T00:12:58;1.40;;;1.30;;
27303;SDS011;14791;52.392;13.092;2023-11-21T00:15:28;1.20;;;1.20;;
27303;SDS011;14791;52.392;13.092;2023-11-21T00:17:57;1.40;;;1.30;;
27303;SDS011;14791;52.392;13.092;2023-11-21T00:20:28;1.23;;;1.23;;
27303;SDS011;14791;52.392;13.092;2023-11-21T00:22:56;1.70;;;1.60;;
27303;SDS011;14791;52.392;13.092;2023-11-21T00:25:26;1.30;;;1.20;;
27303;SDS011;14791;52.392;13.092;2023-11-21T00:27:55;1.47;;;1.37;;
27303;SDS011;14791;52.392;13.092;2023-11-21T00:30:24;1.20;;;1.20;;
27303;SDS011;14791;52.392;13.092;2023-11-21T00:32:54;1.30;;;1.30;;
27303;SDS011;14791;52.392;13.092;2023-11-21T00:35:23;1.07;;;1.07;;
27303;SDS011;14791;52.392;13.092;2023-11-21T00:37:52;1.00;;;1.00;;
27303;SDS011;14791;52.392;13.092;2023-11-21T00:40:21;1.00;;;1.00;;
27303;SDS011;14791;52.392;13.092;2023-11-21T00:42:52;1.13;;;1.13;;
27303;SDS011;14791;52.392;13.092;2023-11-21T00:45:21;1.13;;;1.13;;
27303;SDS011;14791;52.392;13.092;2023-11-21T00:47:50;1.40;;;1.40;;
27303;SDS011;14791;52.392;13.092;2023-11-21T00:50:19;1.90;;;1.80;;
27303;SDS011;14791;52.392;13.092;2023-11-21T00:52:50;1.43;;;1.43;;
27303;SDS011;14791;52.392;13.092;2023-11-21T00:55:18;1.70;;;1.70;;
27303;SDS011;14791;52.392;13.092;2023-11-21T00:57:48;1.80;;;1.80;;
27303;SDS011;14791;52.392;13.092;2023-11-21T01:00:17;2.60;;;2.50;;
27303;SDS011;14791;52.392;13.092;2023-11-21T01:02:46;3.60;;;3.40;;
27303;SDS011;14791;52.392;13.092;2023-11-21T01:05:17;3.37;;;3.27;;
27303;SDS011;14791;52.392;13.092;2023-11-21T01:07:47;4.53;;;4.33;;
27303;SDS011;14791;52.392;13.092;2023-11-21T01:10:17;5.10;;;4.70;;
27303;SDS011;14791;52.392;13.092;2023-11-21T01:12:47;4.83;;;4.63;;
27303;SDS011;14791;52.392;13.092;2023-11-21T01:15:16;5.20;;;5.00;;
27303;SDS011;14791;52.392;13.092;2023-11-21T01:17:45;5.93;;;5.63;;
27303;SDS011;14791;52.392;13.092;2023-11-21T01:20:14;6.33;;;5.93;;
27303;SDS011;14791;52.392;13.092;2023-11-21T01:22:44;6.87;;;6.47;;
27303;SDS011;14791;52.392;13.092;2023-11-21T01:25:15;7.13;;;6.73;;
27303;SDS011;14791;52.392;13.092;2023-11-21T01:27:44;8.10;;;7.40;;
27303;SDS011;14791;52.392;13.092;2023-11-21T01:30:13;9.33;;;7.60;;
27303;SDS011;14791;52.392;13.092;2023-11-21T01:32:43;8.53;;;7.50;;
27303;SDS011;14791;52.392;13.092;2023-11-21T01:35:12;9.20;;;8.20;;
27303;SDS011;14791;52.392;13.092;2023-11-21T01:37:41;8.63;;;7.87;;
27303;SDS011;14791;52.392;13.092;2023-11-21T01:40:10;8.30;;;7.53;;
27303;SDS011;14791;52.392;13.092;2023-11-21T01:42:41;9.40;;;8.47;;
27303;SDS011;14791;52.392;13.092;2023-11-21T01:45:12;8.07;;;7.47;;
27303;SDS011;14791;52.392;13.092;2023-11-21T01:47:41;8.07;;;7.37;;
27303;SDS011;14791;52.392;13.092;2023-11-21T01:50:13;8.27;;;7.57;;
27303;SDS011;14791;52.392;13.092;2023-11-21T01:52:45;7.60;;;6.90;;
27303;SDS011;14791;52.392;13.092;2023-11-21T01:55:16;7.00;;;6.53;;
27303;SDS011;14791;52.392;13.092;2023-11-21T01:57:46;7.63;;;7.00;;
27303;SDS011;14791;52.392;13.092;2023-11-21T02:00:16;7.40;;;6.83;;
27303;SDS011;14791;52.392;13.092;2023-11-21T02:02:46;7.73;;;6.97;;
27303;SDS011;14791;52.392;13.092;2023-11-21T02:05:16;8.47;;;6.80;;
27303;SDS011;14791;52.392;13.092;2023-11-21T02:07:47;7.17;;;6.57;;
27303;SDS011;14791;52.392;13.092;2023-11-21T02:10:18;7.00;;;6.50;;
27303;SDS011;14791;52.392;13.092;2023-11-21T02:12:50;6.50;;;6.13;;
27303;SDS011;14791;52.392;13.092;2023-11-21T02:15:21;6.97;;;6.40;;
27303;SDS011;14791;52.392;13.092;2023-11-21T02:17:52;6.90;;;6.23;;
27303;SDS011;14791;52.392;13.092;2023-11-21T02:20:21;6.93;;;6.33;;
27303;SDS011;14791;52.392;13.092;2023-11-21T02:22:52;5.97;;;5.57;;
27303;SDS011;14791;52.392;13.092;2023-11-21T02:25:27;6.03;;;5.73;;
27303;SDS011;14791;52.392;13.092;2023-11-21T02:27:58;6.63;;;6.23;;
27303;SDS011;14791;52.392;13.092;2023-11-21T02:30:30;6.53;;;6.13;;
27303;SDS011;14791;52.392;13.092;2023-11-21T02:32:59;6.73;;;6.23;;
27303;SDS011;14791;52.392;13.092;2023-11-21T02:35:29;6.63;;;6.23;;
27303;SDS011;14791;52.392;13.092;2023-11-21T02:37:59;6.23;;;5.93;;
27303;SDS011;14791;52.392;13.092;2023-11-21T02:40:29;5.70;;;5.43;;
27303;SDS011;14791;52.392;13.092;2023-11-21T02:42:58;5.83;;;5.53;;
27303;SDS011;14791;52.392;13.092;2023-11-21T02:45:28;5.20;;;5.00;;
27303;SDS011;14791;52.392;13.092;2023-11-21T02:47:57;5.63;;;5.33;;
27303;SDS011;14791;52.392;13.092;2023-11-21T02:50:26;5.40;;;5.10;;
27303;SDS011;14791;52.392;13.092;2023-11-21T02:52:56;5.40;;;5.13;;
27303;SDS011;14791;52.392;13.092;2023-11-21T02:55:27;5.00;;;4.70;;
27303;SDS011;14791;52.392;13.092;2023-11-21T02:57:57;5.10;;;4.90;;
27303;SDS011;14791;52.392;13.092;2023-11-21T03:00:27;5.23;;;4.90;;
27303;SDS011;14791;52.392;13.092;2023-11-21T03:02:56;4.43;;;4.23;;
27303;SDS011;14791;52.392;13.092;2023-11-21T03:05:26;5.10;;;4.90;;
27303;SDS011;14791;52.392;13.092;2023-11-21T03:07:55;4.80;;;4.60;;
27303;SDS011;14791;52.392;13.092;2023-11-21T03:10:26;5.17;;;4.87;;
27303;SDS011;14791;52.392;13.092;2023-11-21T03:12:55;5.37;;;5.17;;
27303;SDS011;14791;52.392;13.092;2023-11-21T03:15:25;5.00;;;4.80;;
27303;SDS011;14791;52.392;13.092;2023-11-21T03:17:54;5.10;;;4.80;;
27303;SDS011;14791;52.392;13.092;2023-11-21T03:20:24;5.30;;;4.80;;
27303;SDS011;14791;52.392;13.092;2023-11-21T03:22:53;5.07;;;4.87;;
27303;SDS011;14791;52.392;13.092;2023-11-21T03:25:22;5.00;;;4.80;;
27303;SDS011;14791;52.392;13.092;2023-11-21T03:27:52;5.07;;;4.87;;
27303;SDS011;14791;52.392;13.092;2023-11-21T03:30:23;5.67;;;5.37;;
27303;SDS011;14791;52.392;13.092;2023-11-21T03:32:52;5.80;;;5.50;;
27303;SDS011;14791;52.392;13.092;2023-11-21T03:35:21;5.77;;;5.47;;
27303;SDS011;14791;52.392;13.092;2023-11-21T03:37:51;6.40;;;5.97;;
27303;SDS011;14791;52.392;13.092;2023-11-21T03:40:20;6.30;;;6.00;;
27303;SDS011;14791;52.392;13.092;2023-11-21T03:42:49;5.80;;;5.60;;
27303;SDS011;14791;52.392;13.092;2023-11-21T03:45:20;6.57;;;6.30;;
27303;SDS011;14791;52.392;13.092;2023-11-21T03:47:49;6.30;;;6.10;;
27303;SDS011;14791;52.392;13.092;2023-11-21T03:50:18;7.03;;;6.63;;
27303;SDS011;14791;52.392;13.092;2023-11-21T03:52:47;6.73;;;6.50;;
27303;SDS011;14791;52.392;13.092;2023-11-21T03:55:16;7.33;;;6.93;;
27303;SDS011;14791;52.392;13.092;2023-11-21T03:57:45;6.37;;;6.07;;
27303;SDS011;14791;52.392;13.092;2023-11-21T04:00:14;7.00;;;6.70;;
27303;SDS011;14791;52.392;13.092;2023-11-21T04:02:44;6.87;;;6.57;;
27303;SDS011;14791;52.392;13.092;2023-11-21T04:05:16;6.57;;;6.27;;
27303;SDS011;14791;52.392;13.092;2023-11-21T04:07:45;7.00;;;6.60;;
27303;SDS011;14791;52.392;13.092;2023-11-21T04:10:14;7.27;;;6.87;;
27303;SDS011;14791;52.392;13.092;2023-11-21T04:12:43;6.70;;;6.40;;
27303;SDS011;14791;52.392;13.092;2023-11-21T04:15:13;7.33;;;6.93;;
27303;SDS011;14791;52.392;13.092;2023-11-21T04:17:42;7.13;;;6.80;;
27303;SDS011;14791;52.392;13.092;2023-11-21T04:20:12;7.23;;;6.93;;
27303;SDS011;14791;52.392;13.092;2023-11-21T04:22:42;7.90;;;7.43;;
27303;SDS011;14791;52.392;13.092;2023-11-21T04:25:18;6.77;;;6.47;;
27303;SDS011;14791;52.392;13.092;2023-11-21T04:27:43;7.60;;;7.20;;
27303;SDS011;14791;52.392;13.092;2023-11-21T04:30:13;7.50;;;7.10;;
27303;SDS011;14791;52.392;13.092;2023-11-21T04:32:42;7.27;;;6.87;;
27303;SDS011;14791;52.392;13.092;2023-11-21T04:35:11;7.50;;;7.10;;
27303;SDS011;14791;52.392;13.092;2023-11-21T04:37:42;7.87;;;7.47;;
27303;SDS011;14791;52.392;13.092;2023-11-21T04:40:12;7.63;;;7.23;;
27303;SDS011;14791;52.392;13.092;2023-11-21T04:42:43;7.37;;;7.00;;
27303;SDS011;14791;52.392;13.092;2023-11-21T04:45:11;7.10;;;6.80;;
27303;SDS011;14791;52.392;13.092;2023-11-21T04:47:42;7.17;;;6.77;;
27303;SDS011;14791;52.392;13.092;2023-11-21T04:50:12;7.87;;;7.47;;
27303;SDS011;14791;52.392;13.092;2023-11-21T04:52:41;6.83;;;6.50;;
27303;SDS011;14791;52.392;13.092;2023-11-21T04:55:10;7.33;;;6.93;;
27303;SDS011;14791;52.392;13.092;2023-11-21T04:57:39;7.10;;;6.70;;
27303;SDS011;14791;52.392;13.092;2023-11-21T05:00:12;6.60;;;6.30;;
27303;SDS011;14791;52.392;13.092;2023-11-21T05:02:42;7.00;;;6.70;;
27303;SDS011;14791;52.392;13.092;2023-11-21T05:05:11;7.20;;;6.87;;
27303;SDS011;14791;52.392;13.092;2023-11-21T05:07:41;7.20;;;6.80;;
27303;SDS011;14791;52.392;13.092;2023-11-21T05:10:10;6.83;;;6.53;;
27303;SDS011;14791;52.392;13.092;2023-11-21T05:12:41;6.87;;;6.57;;
27303;SDS011;14791;52.392;13.092;2023-11-21T05:15:12;7.47;;;7.13;;
27303;SDS011;14791;52.392;13.092;2023-11-21T05:17:43;7.00;;;6.60;;
27303;SDS011;14791;52.392;13.092;2023-11-21T05:20:13;7.67;;;7.27;;
27303;SDS011;14791;52.392;13.092;2023-11-21T05:22:43;7.80;;;7.40;;
27303;SDS011;14791;52.392;13.092;2023-11-21T05:25:12;7.50;;;7.13;;
27303;SDS011;14791;52.392;13.092;2023-11-21T05:27:41;7.33;;;7.00;;
27303;SDS011;14791;52.392;13.092;2023-11-21T05:30:11;7.40;;;7.00;;
27303;SDS011;14791;52.392;13.092;2023-11-21T05:32:41;7.53;;;7.13;;
27303;SDS011;14791;52.392;13.092;2023-11-21T05:35:10;7.43;;;6.97;;
27303;SDS011;14791;52.392;13.092;2023-11-21T05:37:52;8.03;;;7.53;;
27303;SDS011;14791;52.392;13.092;2023-11-21T05:40:16;8.20;;;7.70;;
27303;SDS011;14791;52.392;13.092;2023-11-21T05:42:45;7.47;;;7.03;;
27303;SDS011;14791;52.392;13.092;2023-11-21T05:45:14;7.20;;;6.80;;
27303;SDS011;14791;52.392;13.092;2023-11-21T05:47:44;7.43;;;7.03;;
27303;SDS011;14791;52.392;13.092;2023-11-21T05:50:16;7.97;;;7.57;;
27303;SDS011;14791;52.392;13.092;2023-11-21T05:52:45;6.83;;;6.50;;
27303;SDS011;14791;52.392;13.092;2023-11-21T05:55:15;7.43;;;7.03;;
27303;SDS011;14791;52.392;13.092;2023-11-21T05:57:44;7.83;;;7.20;;
27303;SDS011;14791;52.392;13.092;2023-11-21T06:00:13;7.23;;;6.93;;
27303;SDS011;14791;52.392;13.092;2023-11-21T06:02:52;8.70;;;8.13;;
27303;SDS011;14791;52.392;13.092;2023-11-21T06:05:20;8.20;;;7.70;;
27303;SDS011;14791;52.392;13.092;2023-11-21T06:07:51;8.07;;;7.47;;
27303;SDS011;14791;52.392;13.092;2023-11-21T06:10:22;8.50;;;8.00;;
27303;SDS011;14791;52.392;13.092;2023-11-21T06:12:53;7.90;;;7.50;;
27303;SDS011;14791;52.392;13.092;2023-11-21T06:15:22;7.63;;;7.23;;
27303;SDS011;14791;52.392;13.092;2023-11-21T06:17:53;7.90;;;7.47;;
27303;SDS011;14791;52.392;13.092;2023-11-21T06:20:22;8.23;;;7.73;;
27303;SDS011;14791;52.392;13.092;2023-11-21T06:22:51;8.03;;;7.53;;
27303;SDS011;14791;52.392;13.092;2023-11-21T06:25:21;7.87;;;7.47;;
27303;SDS011;14791;52.392;13.092;2023-11-21T06:27:52;7.90;;;7.40;;
27303;SDS011;14791;52.392;13.092;2023-11-21T06:30:21;7.33;;;6.90;;
27303;SDS011;14791;52.392;13.092;2023-11-21T06:32:50;7.70;;;7.20;;
27303;SDS011;14791;52.392;13.092;2023-11-21T06:35:19;7.97;;;7.57;;
27303;SDS011;14791;52.392;13.092;2023-11-21T06:37:48;7.57;;;7.07;;
27303;SDS011;14791;52.392;13.092;2023-11-21T06:40:19;6.67;;;6.33;;
27303;SDS011;14791;52.392;13.092;2023-11-21T06:42:48;7.80;;;7.30;;
27303;SDS011;14791;52.392;13.092;2023-11-21T06:45:17;6.67;;;6.27;;
27303;SDS011;14791;52.392;13.092;2023-11-21T06:47:47;6.53;;;6.03;;
27303;SDS011;14791;52.392;13.092;2023-11-21T06:50:17;6.87;;;6.57;;
27303;SDS011;14791;52.392;13.092;2023-11-21T06:52:48;6.63;;;6.10;;
27303;SDS011;14791;52.392;13.092;2023-11-21T06:55:16;6.17;;;5.77;;
27303;SDS011;14791;52.392;13.092;2023-11-21T06:57:46;6.07;;;5.67;;
27303;SDS011;14791;52.392;13.092;2023-11-21T07:00:15;5.77;;;5.50;;
27303;SDS011;14791;52.392;13.092;2023-11-21T07:02:46;6.27;;;5.97;;
27303;SDS011;14791;52.392;13.092;2023-11-21T07:05:14;6.20;;;6.00;;
27303;SDS011;14791;52.392;13.092;2023-11-21T07:07:45;5.77;;;5.47;;
27303;SDS011;14791;52.392;13.092;2023-11-21T07:10:15;5.43;;;5.23;;
27303;SDS011;14791;52.392;13.092;2023-11-21T07:12:44;5.83;;;5.53;;
27303;SDS011;14791;52.392;13.092;2023-11-21T07:15:13;7.03;;;6.50;;
27303;SDS011;14791;52.392;13.092;2023-11-21T07:17:42;6.03;;;5.73;;
27303;SDS011;14791;52.392;13.092;2023-11-21T07:20:11;5.97;;;5.47;;
27303;SDS011;14791;52.392;13.092;2023-11-21T07:22:43;5.40;;;5.20;;
27303;SDS011;14791;52.392;13.092;2023-11-21T07:25:12;4.73;;;4.60;;
27303;SDS011;14791;52.392;13.092;2023-11-21T07:27:41;4.70;;;4.50;;
27303;SDS011;14791;52.392;13.092;2023-11-21T07:30:10;4.50;;;4.30;;
27303;SDS011;14791;52.392;13.092;2023-11-21T07:32:40;4.20;;;4.00;;
27303;SDS011;14791;52.392;13.092;2023-11-21T07:35:09;4.50;;;4.30;;
27303;SDS011;14791;52.392;13.092;2023-11-21T07:37:39;4.50;;;4.40;;
27303;SDS011;14791;52.392;13.092;2023-11-21T07:40:09;4.20;;;3.97;;
27303;SDS011;14791;52.392;13.092;2023-11-21T07:42:39;3.80;;;3.70;;
27303;SDS011;14791;52.392;13.092;2023-11-21T07:45:10;3.70;;;3.60;;
27303;SDS011;14791;52.392;13.092;2023-11-21T07:47:41;4.20;;;4.10;;
27303;SDS011;14791;52.392;13.092;2023-11-21T07:50:11;3.97;;;3.87;;
27303;SDS011;14791;52.392;13.092;2023-11-21T07:52:42;4.07;;;3.87;;
27303;SDS011;14791;52.392;13.092;2023-11-21T07:55:12;3.50;;;3.40;;
27303;SDS011;14791;52.392;13.092;2023-11-21T07:57:41;3.73;;;3.63;;
27303;SDS011;14791;52.392;13.092;2023-11-21T08:00:10;3.60;;;3.50;;
27303;SDS011;14791;52.392;13.092;2023-11-21T08:02:42;3.70;;;3.60;;
27303;SDS011;14791;52.392;13.092;2023-11-21T08:05:12;3.77;;;3.67;;
27303;SDS011;14791;52.392;13.092;2023-11-21T08:07:42;3.73;;;3.63;;
27303;SDS011;14791;52.392;13.092;2023-11-21T08:10:11;3.97;;;3.77;;
27303;SDS011;14791;52.392;13.092;2023-11-21T08:12:41;3.53;;;3.43;;
27303;SDS011;14791;52.392;13.092;2023-11-21T08:15:11;4.03;;;3.83;;
27303;SDS011;14791;52.392;13.092;2023-11-21T08:17:40;3.97;;;3.77;;
27303;SDS011;14791;52.392;13.092;2023-11-21T08:20:10;3.80;;;3.70;;
27303;SDS011;14791;52.392;13.092;2023-11-21T08:22:39;4.23;;;4.13;;
27303;SDS011;14791;52.392;13.092;2023-11-21T08:25:08;3.83;;;3.63;;
27303;SDS011;14791;52.392;13.092;2023-11-21T08:27:38;3.60;;;3.50;;
27303;SDS011;14791;52.392;13.092;2023-11-21T08:30:07;3.30;;;3.20;;
27303;SDS011;14791;52.392;13.092;2023-11-21T08:32:38;3.30;;;3.20;;
27303;SDS011;14791;52.392;13.092;2023-11-21T08:35:08;3.97;;;3.73;;
27303;SDS011;14791;52.392;13.092;2023-11-21T08:37:37;3.47;;;3.37;;
27303;SDS011;14791;52.392;13.092;2023-11-21T08:40:08;3.10;;;3.00;;
27303;SDS011;14791;52.392;13.092;2023-11-21T08:42:39;3.33;;;3.23;;
27303;SDS011;14791;52.392;13.092;2023-11-21T08:45:08;3.50;;;3.40;;
27303;SDS011;14791;52.392;13.092;2023-11-21T08:47:37;2.77;;;2.67;;
27303;SDS011;14791;52.392;13.092;2023-11-21T08:50:09;2.90;;;2.80;;
27303;SDS011;14791;52.392;13.092;2023-11-21T08:52:40;2.87;;;2.77;;
27303;SDS011;14791;52.392;13.092;2023-11-21T08:55:11;2.90;;;2.80;;
27303;SDS011;14791;52.392;13.092;2023-11-21T08:57:43;2.90;;;2.80;;
27303;SDS011;14791;52.392;13.092;2023-11-21T09:00:13;2.47;;;2.37;;
27303;SDS011;14791;52.392;13.092;2023-11-21T09:02:44;2.43;;;2.40;;
27303;SDS011;14791;52.392;13.092;2023-11-21T09:05:13;2.87;;;2.77;;
27303;SDS011;14791;52.392;13.092;2023-11-21T09:07:43;3.17;;;3.07;;
27303;SDS011;14791;52.392;13.092;2023-11-21T09:10:14;3.37;;;3.17;;
27303;SDS011;14791;52.392;13.092;2023-11-21T09:12:43;2.93;;;2.83;;
27303;SDS011;14791;52.392;13.092;2023-11-21T09:15:12;3.17;;;3.07;;
27303;SDS011;14791;52.392;13.092;2023-11-21T09:17:41;2.90;;;2.80;;
27303;SDS011;14791;52.392;13.092;2023-11-21T09:20:11;2.93;;;2.83;;
27303;SDS011;14791;52.392;13.092;2023-11-21T09:22:42;3.20;;;3.10;;
27303;SDS011;14791;52.392;13.092;2023-11-21T09:25:11;3.17;;;2.93;;
27303;SDS011;14791;52.392;13.092;2023-11-21T09:27:40;3.20;;;3.10;;
27303;SDS011;14791;52.392;13.092;2023-11-21T09:30:10;3.17;;;3.07;;
27303;SDS011;14791;52.392;13.092;2023-11-21T09:32:42;3.50;;;3.30;;
27303;SDS011;14791;52.392;13.092;2023-11-21T09:35:12;3.43;;;3.17;;
27303;SDS011;14791;52.392;13.092;2023-11-21T09:37:41;3.30;;;2.93;;
27303;SDS011;14791;52.392;13.092;2023-11-21T09:40:13;3.23;;;3.10;;
27303;SDS011;14791;52.392;13.092;2023-11-21T09:42:48;3.07;;;2.97;;
27303;SDS011;14791;52.392;13.092;2023-11-21T09:45:27;2.70;;;2.60;;
27303;SDS011;14791;52.392;13.092;2023-11-21T09:47:58;2.23;;;2.20;;
27303;SDS011;14791;52.392;13.092;2023-11-21T09:50:27;2.63;;;2.53;;
27303;SDS011;14791;52.392;13.092;2023-11-21T09:53:13;2.53;;;2.43;;
27303;SDS011;14791;52.392;13.092;2023-11-21T09:55:46;2.57;;;2.47;;
27303;SDS011;14791;52.392;13.092;2023-11-21T09:58:18;2.00;;;2.00;;
27303;SDS011;14791;52.392;13.092;2023-11-21T10:00:50;2.50;;;2.40;;
27303;SDS011;14791;52.392;13.092;2023-11-21T10:03:21;1.90;;;1.90;;
27303;SDS011;14791;52.392;13.092;2023-11-21T10:05:53;1.87;;;1.87;;
27303;SDS011;14791;52.392;13.092;2023-11-21T10:08:25;2.30;;;2.20;;
27303;SDS011;14791;52.392;13.092;2023-11-21T10:10:55;2.53;;;2.43;;
27303;SDS011;14791;52.392;13.092;2023-11-21T10:13:26;2.37;;;2.27;;
27303;SDS011;14791;52.392;13.092;2023-11-21T10:15:59;5.53;;;5.23;;
27303;SDS011;14791;52.392;13.092;2023-11-21T10:18:30;3.30;;;3.20;;
27303;SDS011;14791;52.392;13.092;2023-11-21T10:21:01;3.00;;;2.80;;
27303;SDS011;14791;52.392;13.092;2023-11-21T10:23:31;2.30;;;2.20;;
27303;SDS011;14791;52.392;13.092;2023-11-21T10:26:01;2.40;;;2.30;;
27303;SDS011;14791;52.392;13.092;2023-11-21T10:28:35;2.30;;;2.20;;
27303;SDS011;14791;52.392;13.092;2023-11-21T10:31:07;2.20;;;2.10;;
27303;SDS011;14791;52.392;13.092;2023-11-21T10:33:36;2.13;;;2.13;;
27303;SDS011;14791;52.392;13.092;2023-11-21T10:36:07;2.30;;;2.27;;
27303;SDS011;14791;52.392;13.092;2023-11-21T10:38:48;2.27;;;2.27;;
27303;SDS011;14791;52.392;13.092;2023-11-21T10:41:12;2.47;;;2.37;;
27303;SDS011;14791;52.392;13.092;2023-11-21T10:43:43;2.37;;;2.27;;
27303;SDS011;14791;52.392;13.092;2023-11-21T10:46:13;2.50;;;2.40;;
27303;SDS011;14791;52.392;13.092;2023-11-21T10:48:43;1.90;;;1.90;;
27303;SDS011;14791;52.392;13.092;2023-11-21T10:51:12;1.90;;;1.90;;
27303;SDS011;14791;52.392;13.092;2023-11-21T10:53:42;2.30;;;2.20;;
27303;SDS011;14791;52.392;13.092;2023-11-21T10:56:13;1.97;;;1.97;;
27303;SDS011;14791;52.392;13.092;2023-11-21T10:58:47;2.30;;;2.30;;
27303;SDS011;14791;52.392;13.092;2023-11-21T11:01:19;2.10;;;2.10;;
27303;SDS011;14791;52.392;13.092;2023-11-21T11:03:50;2.60;;;2.50;;
27303;SDS011;14791;52.392;13.092;2023-11-21T11:06:23;2.07;;;2.07;;
27303;SDS011;14791;52.392;13.092;2023-11-21T11:08:54;2.70;;;2.60;;
27303;SDS011;14791;52.392;13.092;2023-11-21T11:11:24;2.70;;;2.60;;
27303;SDS011;14791;52.392;13.092;2023-11-21T11:13:53;3.00;;;2.70;;
27303;SDS011;14791;52.392;13.092;2023-11-21T11:16:25;2.53;;;2.43;;
27303;SDS011;14791;52.392;13.092;2023-11-21T11:18:55;2.50;;;2.47;;
27303;SDS011;14791;52.392;13.092;2023-11-21T11:25:03;2.40;;;2.30;;
27303;SDS011;14791;52.392;13.092;2023-11-21T11:27:09;2.33;;;2.33;;
27303;SDS011;14791;52.392;13.092;2023-11-21T11:29:51;2.50;;;2.40;;
27303;SDS011;14791;52.392;13.092;2023-11-21T11:32:28;2.20;;;2.20;;
27303;SDS011;14791;52.392;13.092;2023-11-21T11:35:09;2.60;;;2.40;;
27303;SDS011;14791;52.392;13.092;2023-11-21T11:37:46;2.67;;;2.57;;
27303;SDS011;14791;52.392;13.092;2023-11-21T11:40:15;3.00;;;2.90;;
27303;SDS011;14791;52.392;13.092;2023-11-21T11:42:58;3.23;;;3.03;;
27303;SDS011;14791;52.392;13.092;2023-11-21T11:45:32;2.73;;;2.63;;
27303;SDS011;14791;52.392;13.092;2023-11-21T11:48:02;2.93;;;2.83;;
27303;SDS011;14791;52.392;13.092;2023-11-21T11:50:33;2.70;;;2.60;;
27303;SDS011;14791;52.392;13.092;2023-11-21T11:53:13;3.57;;;3.47;;
27303;SDS011;14791;52.392;13.092;2023-11-21T11:55:46;2.93;;;2.83;;
27303;SDS011;14791;52.392;13.092;2023-11-21T11:58:16;3.93;;;2.97;;
27303;SDS011;14791;52.392;13.092;2023-11-21T12:00:47;2.87;;;2.77;;
27303;SDS011;14791;52.392;13.092;2023-11-21T12:03:19;2.57;;;2.47;;
27303;SDS011;14791;52.392;13.092;2023-11-21T12:05:48;2.93;;;2.83;;
27303;SDS011;14791;52.392;13.092;2023-11-21T12:08:20;2.90;;;2.80;;
27303;SDS011;14791;52.392;13.092;2023-11-21T12:10:50;6.00;;;5.70;;
27303;SDS011;14791;52.392;13.092;2023-11-21T12:13:20;5.17;;;4.97;;
27303;SDS011;14791;52.392;13.092;2023-11-21T12:15:52;6.33;;;6.03;;
27303;SDS011;14791;52.392;13.092;2023-11-21T12:18:23;5.13;;;4.93;;
27303;SDS011;14791;52.392;13.092;2023-11-21T12:20:53;4.37;;;4.17;;
27303;SDS011;14791;52.392;13.092;2023-11-21T12:23:24;3.60;;;3.50;;
27303;SDS011;14791;52.392;13.092;2023-11-21T12:25:54;3.77;;;3.60;;
27303;SDS011;14791;52.392;13.092;2023-11-21T12:28:23;3.40;;;3.30;;
27303;SDS011;14791;52.392;13.092;2023-11-21T12:30:52;3.10;;;3.00;;
27303;SDS011;14791;52.392;13.092;2023-11-21T12:33:21;3.30;;;3.20;;
27303;SDS011;14791;52.392;13.092;2023-11-21T12:35:52;3.17;;;3.07;;
27303;SDS011;14791;52.392;13.092;2023-11-21T12:38:21;2.93;;;2.83;;
27303;SDS011;14791;52.392;13.092;2023-11-21T12:40:51;3.00;;;2.90;;
27303;SDS011;14791;52.392;13.092;2023-11-21T12:43:22;3.00;;;2.90;;
27303;SDS011;14791;52.392;13.092;2023-11-21T12:46:04;4.00;;;3.80;;
27303;SDS011;14791;52.392;13.092;2023-11-21T12:48:42;3.37;;;3.27;;
27303;SDS011;14791;52.392;13.092;2023-11-21T12:51:13;3.23;;;3.13;;
27303;SDS011;14791;52.392;13.092;2023-11-21T12:53:43;3.47;;;3.37;;
27303;SDS011;14791;52.392;13.092;2023-11-21T12:56:13;3.97;;;3.87;;
27303;SDS011;14791;52.392;13.092;2023-11-21T12:58:44;4.53;;;4.27;;
27303;SDS011;14791;52.392;13.092;2023-11-21T13:01:18;3.90;;;3.80;;
27303;SDS011;14791;52.392;13.092;2023-11-21T13:03:50;4.53;;;4.33;;
27303;SDS011;14791;52.392;13.092;2023-11-21T13:06:19;4.43;;;4.23;;
27303;SDS011;14791;52.392;13.092;2023-11-21T13:08:49;3.83;;;3.63;;
27303;SDS011;14791;52.392;13.092;2023-11-21T13:11:20;4.73;;;4.47;;
27303;SDS011;14791;52.392;13.092;2023-11-21T13:13:51;4.77;;;4.47;;
27303;SDS011;14791;52.392;13.092;2023-11-21T13:16:23;3.33;;;3.23;;
27303;SDS011;14791;52.392;13.092;2023-11-21T13:18:52;4.80;;;4.60;;
27303;SDS011;14791;52.392;13.092;2023-11-21T13:21:22;4.20;;;3.90;;
27303;SDS011;14791;52.392;13.092;2023-11-21T13:23:51;4.10;;;3.90;;
27303;SDS011;14791;52.392;13.092;2023-11-21T13:26:21;3.93;;;3.73;;
27303;SDS011;14791;52.392;13.092;2023-11-21T13:28:52;4.00;;;3.80;;
27303;SDS011;14791;52.392;13.092;2023-11-21T13:31:21;4.07;;;3.87;;
27303;SDS011;14791;52.392;13.092;2023-11-21T13:33:52;4.10;;;4.00;;
27303;SDS011;14791;52.392;13.092;2023-11-21T13:36:23;4.23;;;3.93;;
27303;SDS011;14791;52.392;13.092;2023-11-21T13:38:54;4.20;;;4.00;;
27303;SDS011;14791;52.392;13.092;2023-11-21T13:41:25;4.70;;;4.50;;
27303;SDS011;14791;52.392;13.092;2023-11-21T13:43:59;4.10;;;3.83;;
27303;SDS011;14791;52.392;13.092;2023-11-21T13:46:33;4.30;;;4.10;;
27303;SDS011;14791;52.392;13.092;2023-11-21T13:49:05;4.43;;;4.13;;
27303;SDS011;14791;52.392;13.092;2023-11-21T13:51:36;4.37;;;3.97;;
27303;SDS011;14791;52.392;13.092;2023-11-21T13:54:06;4.00;;;3.80;;
27303;SDS011;14791;52.392;13.092;2023-11-21T13:56:36;4.63;;;4.37;;
27303;SDS011;14791;52.392;13.092;2023-11-21T13:59:07;4.00;;;3.87;;
27303;SDS011;14791;52.392;13.092;2023-11-21T14:01:43;4.10;;;4.00;;
27303;SDS011;14791;52.392;13.092;2023-11-21T14:04:14;4.00;;;3.80;;
27303;SDS011;14791;52.392;13.092;2023-11-21T14:06:50;4.10;;;4.00;;
27303;SDS011;14791;52.392;13.092;2023-11-21T14:09:23;3.90;;;3.80;;
27303;SDS011;14791;52.392;13.092;2023-11-21T14:11:57;4.37;;;4.17;;
27303;SDS011;14791;52.392;13.092;2023-11-21T14:14:27;4.57;;;4.37;;
27303;SDS011;14791;52.392;13.092;2023-11-21T14:16:56;5.43;;;5.13;;
27303;SDS011;14791;52.392;13.092;2023-11-21T14:19:27;5.63;;;5.33;;
27303;SDS011;14791;52.392;13.092;2023-11-21T14:21:57;5.50;;;5.30;;
27303;SDS011;14791;52.392;13.092;2023-11-21T14:24:27;5.53;;;5.23;;
27303;SDS011;14791;52.392;13.092;2023-11-21T14:26:57;5.90;;;5.60;;
27303;SDS011;14791;52.392;13.092;2023-11-21T14:29:26;5.43;;;5.17;;
27303;SDS011;14791;52.392;13.092;2023-11-21T14:31:58;6.63;;;6.23;;
27303;SDS011;14791;52.392;13.092;2023-11-21T14:34:28;6.70;;;6.30;;
27303;SDS011;14791;52.392;13.092;2023-11-21T14:36:57;7.00;;;6.60;;
27303;SDS011;14791;52.392;13.092;2023-11-21T14:39:26;6.63;;;6.33;;
27303;SDS011;14791;52.392;13.092;2023-11-21T14:41:57;6.40;;;6.07;;
27303;SDS011;14791;52.392;13.092;2023-11-21T14:44:28;6.37;;;5.97;;
27303;SDS011;14791;52.392;13.092;2023-11-21T14:47:00;6.90;;;6.50;;
27303;SDS011;14791;52.392;13.092;2023-11-21T14:49:31;6.80;;;6.40;;
27303;SDS011;14791;52.392;13.092;2023-11-21T14:52:01;7.67;;;7.17;;
27303;SDS011;14791;52.392;13.092;2023-11-21T14:54:34;7.43;;;6.90;;